Terminal Aerodrome Forecast
Issued by NWS Charleston, WV

Current Version | Previous Version | Graphics & Text | Print | Product List | Glossary On
Versions: 1 2 3 4 5 6 7 8 9 10 11 12 13 14 15 16 17 18 19 20 21 22 23 24
000
FTUS41 KRLX 261700 RRA
TAFCRW
TAF
KCRW 261752Z 2618/2718 35007KT P6SM BKN030
     FM261900 34006KT P6SM SCT030 SCT100
     FM262300 31005KT P6SM BKN035
     FM270300 32005KT 3SM -SHSN BR BKN025
     FM270400 33005KT P6SM BKN025
     FM271700 33006KT P6SM SCT030=

USA.gov is the U.S. government's official web portal to all federal, state and local government web resources and services.